sensor_id;sensor_type;location;lat;lon;timestamp;P1;durP1;ratioP1;P2;durP2;ratioP2
13941;SDS011;7043;51.630;7.254;2023-12-14T00:00:53;18.50;;;13.90;;
13941;SDS011;7043;51.630;7.254;2023-12-14T00:03:19;17.97;;;13.50;;
13941;SDS011;7043;51.630;7.254;2023-12-14T00:05:45;19.83;;;14.10;;
13941;SDS011;7043;51.630;7.254;2023-12-14T00:08:11;17.50;;;13.37;;
13941;SDS011;7043;51.630;7.254;2023-12-14T00:10:37;16.67;;;13.20;;
13941;SDS011;7043;51.630;7.254;2023-12-14T00:13:03;17.60;;;13.13;;
13941;SDS011;7043;51.630;7.254;2023-12-14T00:15:31;17.50;;;12.53;;
13941;SDS011;7043;51.630;7.254;2023-12-14T00:17:57;16.30;;;12.83;;
13941;SDS011;7043;51.630;7.254;2023-12-14T00:20:23;16.27;;;12.50;;
13941;SDS011;7043;51.630;7.254;2023-12-14T00:22:49;15.67;;;12.27;;
13941;SDS011;7043;51.630;7.254;2023-12-14T00:25:15;14.63;;;11.80;;
13941;SDS011;7043;51.630;7.254;2023-12-14T00:27:41;18.47;;;13.40;;
13941;SDS011;7043;51.630;7.254;2023-12-14T00:30:07;16.43;;;12.93;;
13941;SDS011;7043;51.630;7.254;2023-12-14T00:32:33;17.83;;;13.43;;
13941;SDS011;7043;51.630;7.254;2023-12-14T00:34:59;17.37;;;13.13;;
13941;SDS011;7043;51.630;7.254;2023-12-14T00:37:25;15.67;;;12.73;;
13941;SDS011;7043;51.630;7.254;2023-12-14T00:39:51;17.13;;;13.27;;
13941;SDS011;7043;51.630;7.254;2023-12-14T00:42:17;15.87;;;12.87;;
13941;SDS011;7043;51.630;7.254;2023-12-14T00:44:43;17.40;;;13.53;;
13941;SDS011;7043;51.630;7.254;2023-12-14T00:47:09;16.47;;;13.87;;
13941;SDS011;7043;51.630;7.254;2023-12-14T00:49:35;16.23;;;13.43;;
13941;SDS011;7043;51.630;7.254;2023-12-14T00:52:01;18.37;;;14.47;;
13941;SDS011;7043;51.630;7.254;2023-12-14T00:54:27;17.33;;;14.13;;
13941;SDS011;7043;51.630;7.254;2023-12-14T00:56:53;18.70;;;14.33;;
13941;SDS011;7043;51.630;7.254;2023-12-14T00:59:19;18.80;;;14.33;;
13941;SDS011;7043;51.630;7.254;2023-12-14T01:01:45;18.77;;;14.30;;
13941;SDS011;7043;51.630;7.254;2023-12-14T01:04:11;21.10;;;15.73;;
13941;SDS011;7043;51.630;7.254;2023-12-14T01:06:37;19.67;;;15.00;;
13941;SDS011;7043;51.630;7.254;2023-12-14T01:09:03;22.20;;;16.90;;
13941;SDS011;7043;51.630;7.254;2023-12-14T01:11:29;22.70;;;16.37;;
13941;SDS011;7043;51.630;7.254;2023-12-14T01:13:55;21.33;;;15.70;;
13941;SDS011;7043;51.630;7.254;2023-12-14T01:16:21;23.00;;;17.20;;
13941;SDS011;7043;51.630;7.254;2023-12-14T01:18:47;25.30;;;17.63;;
13941;SDS011;7043;51.630;7.254;2023-12-14T01:21:13;24.27;;;18.50;;
13941;SDS011;7043;51.630;7.254;2023-12-14T01:23:39;27.13;;;19.23;;
13941;SDS011;7043;51.630;7.254;2023-12-14T01:26:05;27.60;;;19.33;;
13941;SDS011;7043;51.630;7.254;2023-12-14T01:28:31;30.80;;;20.83;;
13941;SDS011;7043;51.630;7.254;2023-12-14T01:30:57;32.57;;;23.53;;
13941;SDS011;7043;51.630;7.254;2023-12-14T01:33:23;36.07;;;24.17;;
13941;SDS011;7043;51.630;7.254;2023-12-14T01:35:49;34.43;;;23.50;;
13941;SDS011;7043;51.630;7.254;2023-12-14T01:38:15;35.40;;;23.97;;
13941;SDS011;7043;51.630;7.254;2023-12-14T01:40:41;38.90;;;24.90;;
13941;SDS011;7043;51.630;7.254;2023-12-14T01:43:08;36.43;;;23.63;;
13941;SDS011;7043;51.630;7.254;2023-12-14T01:45:35;35.00;;;22.77;;
13941;SDS011;7043;51.630;7.254;2023-12-14T01:48:01;33.67;;;23.17;;
13941;SDS011;7043;51.630;7.254;2023-12-14T01:50:27;35.30;;;22.83;;
13941;SDS011;7043;51.630;7.254;2023-12-14T01:52:53;37.80;;;23.80;;
13941;SDS011;7043;51.630;7.254;2023-12-14T01:55:19;33.03;;;21.77;;
13941;SDS011;7043;51.630;7.254;2023-12-14T01:57:45;33.73;;;22.07;;
13941;SDS011;7043;51.630;7.254;2023-12-14T02:00:14;35.00;;;21.57;;
13941;SDS011;7043;51.630;7.254;2023-12-14T02:02:45;31.07;;;20.73;;
13941;SDS011;7043;51.630;7.254;2023-12-14T02:05:11;32.13;;;20.90;;
13941;SDS011;7043;51.630;7.254;2023-12-14T02:07:37;31.37;;;20.40;;
13941;SDS011;7043;51.630;7.254;2023-12-14T02:10:03;30.30;;;19.83;;
13941;SDS011;7043;51.630;7.254;2023-12-14T02:12:29;30.10;;;19.87;;
13941;SDS011;7043;51.630;7.254;2023-12-14T02:14:59;31.83;;;20.20;;
13941;SDS011;7043;51.630;7.254;2023-12-14T02:17:25;30.83;;;20.10;;
13941;SDS011;7043;51.630;7.254;2023-12-14T02:19:50;28.60;;;19.23;;
13941;SDS011;7043;51.630;7.254;2023-12-14T02:22:17;27.73;;;18.40;;
13941;SDS011;7043;51.630;7.254;2023-12-14T02:24:43;29.87;;;20.20;;
13941;SDS011;7043;51.630;7.254;2023-12-14T02:27:09;30.40;;;19.73;;
13941;SDS011;7043;51.630;7.254;2023-12-14T02:29:35;30.73;;;20.53;;
13941;SDS011;7043;51.630;7.254;2023-12-14T02:32:00;29.17;;;20.27;;
13941;SDS011;7043;51.630;7.254;2023-12-14T02:34:26;31.83;;;20.93;;
13941;SDS011;7043;51.630;7.254;2023-12-14T02:36:53;29.63;;;20.17;;
13941;SDS011;7043;51.630;7.254;2023-12-14T02:39:19;35.10;;;22.20;;
13941;SDS011;7043;51.630;7.254;2023-12-14T02:41:45;32.03;;;20.67;;
13941;SDS011;7043;51.630;7.254;2023-12-14T02:44:11;33.80;;;21.90;;
13941;SDS011;7043;51.630;7.254;2023-12-14T02:46:37;33.10;;;21.80;;
13941;SDS011;7043;51.630;7.254;2023-12-14T02:49:03;33.37;;;22.00;;
13941;SDS011;7043;51.630;7.254;2023-12-14T02:51:29;35.10;;;23.70;;
13941;SDS011;7043;51.630;7.254;2023-12-14T02:53:54;36.20;;;23.83;;
13941;SDS011;7043;51.630;7.254;2023-12-14T02:56:22;37.07;;;22.70;;
13941;SDS011;7043;51.630;7.254;2023-12-14T02:58:49;37.20;;;23.60;;
13941;SDS011;7043;51.630;7.254;2023-12-14T03:01:18;36.87;;;23.93;;
13941;SDS011;7043;51.630;7.254;2023-12-14T03:03:45;36.30;;;24.27;;
13941;SDS011;7043;51.630;7.254;2023-12-14T03:06:11;37.40;;;24.43;;
13941;SDS011;7043;51.630;7.254;2023-12-14T03:08:37;35.53;;;23.37;;
13941;SDS011;7043;51.630;7.254;2023-12-14T03:11:03;37.53;;;24.93;;
13941;SDS011;7043;51.630;7.254;2023-12-14T03:13:29;39.77;;;24.13;;
13941;SDS011;7043;51.630;7.254;2023-12-14T03:15:55;37.00;;;24.90;;
13941;SDS011;7043;51.630;7.254;2023-12-14T03:18:21;37.47;;;24.17;;
13941;SDS011;7043;51.630;7.254;2023-12-14T03:20:47;39.30;;;24.17;;
13941;SDS011;7043;51.630;7.254;2023-12-14T03:23:13;42.33;;;25.10;;
13941;SDS011;7043;51.630;7.254;2023-12-14T03:25:39;39.80;;;24.40;;
13941;SDS011;7043;51.630;7.254;2023-12-14T03:28:05;39.53;;;25.00;;
13941;SDS011;7043;51.630;7.254;2023-12-14T03:30:31;39.87;;;24.67;;
13941;SDS011;7043;51.630;7.254;2023-12-14T03:32:57;44.33;;;26.20;;
13941;SDS011;7043;51.630;7.254;2023-12-14T03:35:23;40.93;;;25.33;;
13941;SDS011;7043;51.630;7.254;2023-12-14T03:37:49;40.03;;;25.33;;
13941;SDS011;7043;51.630;7.254;2023-12-14T03:40:15;40.03;;;25.33;;
13941;SDS011;7043;51.630;7.254;2023-12-14T03:42:41;38.77;;;24.33;;
13941;SDS011;7043;51.630;7.254;2023-12-14T03:45:07;40.73;;;24.80;;
13941;SDS011;7043;51.630;7.254;2023-12-14T03:47:33;37.30;;;23.50;;
13941;SDS011;7043;51.630;7.254;2023-12-14T03:49:59;35.23;;;22.30;;
13941;SDS011;7043;51.630;7.254;2023-12-14T03:52:25;35.77;;;23.03;;
13941;SDS011;7043;51.630;7.254;2023-12-14T03:54:53;32.80;;;20.70;;
13941;SDS011;7043;51.630;7.254;2023-12-14T03:57:19;31.20;;;19.63;;
13941;SDS011;7043;51.630;7.254;2023-12-14T03:59:44;30.53;;;18.83;;
13941;SDS011;7043;51.630;7.254;2023-12-14T04:02:11;29.33;;;18.60;;
13941;SDS011;7043;51.630;7.254;2023-12-14T04:04:37;30.70;;;19.07;;
13941;SDS011;7043;51.630;7.254;2023-12-14T04:07:03;31.20;;;19.10;;
13941;SDS011;7043;51.630;7.254;2023-12-14T04:09:29;28.37;;;18.63;;
13941;SDS011;7043;51.630;7.254;2023-12-14T04:11:55;32.00;;;18.93;;
13941;SDS011;7043;51.630;7.254;2023-12-14T04:14:21;28.20;;;19.00;;
13941;SDS011;7043;51.630;7.254;2023-12-14T04:16:47;27.70;;;18.43;;
13941;SDS011;7043;51.630;7.254;2023-12-14T04:19:13;28.10;;;18.37;;
13941;SDS011;7043;51.630;7.254;2023-12-14T04:21:39;31.00;;;19.10;;
13941;SDS011;7043;51.630;7.254;2023-12-14T04:24:05;27.63;;;17.87;;
13941;SDS011;7043;51.630;7.254;2023-12-14T04:26:32;29.37;;;18.03;;
13941;SDS011;7043;51.630;7.254;2023-12-14T04:28:58;24.67;;;17.03;;
13941;SDS011;7043;51.630;7.254;2023-12-14T04:31:24;26.67;;;17.23;;
13941;SDS011;7043;51.630;7.254;2023-12-14T04:33:49;25.07;;;16.57;;
13941;SDS011;7043;51.630;7.254;2023-12-14T04:36:15;23.93;;;16.77;;
13941;SDS011;7043;51.630;7.254;2023-12-14T04:38:41;26.27;;;17.63;;
13941;SDS011;7043;51.630;7.254;2023-12-14T04:41:11;28.30;;;18.27;;
13941;SDS011;7043;51.630;7.254;2023-12-14T04:43:37;26.40;;;17.20;;
13941;SDS011;7043;51.630;7.254;2023-12-14T04:46:03;28.03;;;17.17;;
13941;SDS011;7043;51.630;7.254;2023-12-14T04:48:31;25.63;;;17.20;;
13941;SDS011;7043;51.630;7.254;2023-12-14T04:50:56;26.30;;;18.10;;
13941;SDS011;7043;51.630;7.254;2023-12-14T04:53:22;30.67;;;19.10;;
13941;SDS011;7043;51.630;7.254;2023-12-14T04:55:48;27.20;;;18.50;;
13941;SDS011;7043;51.630;7.254;2023-12-14T04:58:14;26.73;;;18.87;;
13941;SDS011;7043;51.630;7.254;2023-12-14T05:00:41;31.30;;;19.80;;
13941;SDS011;7043;51.630;7.254;2023-12-14T05:03:07;28.40;;;19.77;;
13941;SDS011;7043;51.630;7.254;2023-12-14T05:05:33;30.57;;;19.67;;
13941;SDS011;7043;51.630;7.254;2023-12-14T05:07:59;34.23;;;20.67;;
13941;SDS011;7043;51.630;7.254;2023-12-14T05:10:25;32.63;;;20.73;;
13941;SDS011;7043;51.630;7.254;2023-12-14T05:12:51;30.43;;;20.70;;
13941;SDS011;7043;51.630;7.254;2023-12-14T05:15:17;34.53;;;22.63;;
13941;SDS011;7043;51.630;7.254;2023-12-14T05:17:45;29.50;;;20.37;;
13941;SDS011;7043;51.630;7.254;2023-12-14T05:20:11;28.90;;;20.60;;
13941;SDS011;7043;51.630;7.254;2023-12-14T05:22:37;31.47;;;21.80;;
13941;SDS011;7043;51.630;7.254;2023-12-14T05:25:03;31.33;;;20.67;;
13941;SDS011;7043;51.630;7.254;2023-12-14T05:27:29;31.03;;;21.43;;
13941;SDS011;7043;51.630;7.254;2023-12-14T05:29:55;35.30;;;22.93;;
13941;SDS011;7043;51.630;7.254;2023-12-14T05:32:21;38.70;;;23.37;;
13941;SDS011;7043;51.630;7.254;2023-12-14T05:34:47;36.30;;;23.33;;
13941;SDS011;7043;51.630;7.254;2023-12-14T05:37:13;36.93;;;23.47;;
13941;SDS011;7043;51.630;7.254;2023-12-14T05:39:41;34.83;;;23.07;;
13941;SDS011;7043;51.630;7.254;2023-12-14T05:42:07;38.93;;;24.37;;
13941;SDS011;7043;51.630;7.254;2023-12-14T05:44:33;32.73;;;22.07;;
13941;SDS011;7043;51.630;7.254;2023-12-14T05:46:59;34.50;;;21.83;;
13941;SDS011;7043;51.630;7.254;2023-12-14T05:49:25;29.97;;;20.23;;
13941;SDS011;7043;51.630;7.254;2023-12-14T05:51:51;29.33;;;20.10;;
13941;SDS011;7043;51.630;7.254;2023-12-14T05:54:17;29.77;;;20.20;;
13941;SDS011;7043;51.630;7.254;2023-12-14T05:56:43;29.30;;;19.63;;
13941;SDS011;7043;51.630;7.254;2023-12-14T05:59:09;30.07;;;20.97;;
13941;SDS011;7043;51.630;7.254;2023-12-14T06:01:36;31.60;;;20.77;;
13941;SDS011;7043;51.630;7.254;2023-12-14T06:04:02;30.40;;;20.20;;
13941;SDS011;7043;51.630;7.254;2023-12-14T06:06:28;27.87;;;19.57;;
13941;SDS011;7043;51.630;7.254;2023-12-14T06:08:54;28.23;;;20.00;;
13941;SDS011;7043;51.630;7.254;2023-12-14T06:11:20;30.17;;;20.33;;
13941;SDS011;7043;51.630;7.254;2023-12-14T06:13:46;31.27;;;20.47;;
13941;SDS011;7043;51.630;7.254;2023-12-14T06:16:12;33.83;;;22.73;;
13941;SDS011;7043;51.630;7.254;2023-12-14T06:18:40;27.67;;;21.17;;
13941;SDS011;7043;51.630;7.254;2023-12-14T06:21:08;28.17;;;20.27;;
13941;SDS011;7043;51.630;7.254;2023-12-14T06:23:35;28.73;;;23.80;;
13941;SDS011;7043;51.630;7.254;2023-12-14T06:26:02;29.17;;;24.00;;
13941;SDS011;7043;51.630;7.254;2023-12-14T06:28:29;32.07;;;25.90;;
13941;SDS011;7043;51.630;7.254;2023-12-14T06:30:55;30.33;;;25.33;;
13941;SDS011;7043;51.630;7.254;2023-12-14T06:33:22;30.87;;;22.63;;
13941;SDS011;7043;51.630;7.254;2023-12-14T06:35:48;30.83;;;25.00;;
13941;SDS011;7043;51.630;7.254;2023-12-14T06:38:14;29.67;;;23.03;;
13941;SDS011;7043;51.630;7.254;2023-12-14T06:40:40;26.70;;;19.77;;
13941;SDS011;7043;51.630;7.254;2023-12-14T06:43:06;28.97;;;20.80;;
13941;SDS011;7043;51.630;7.254;2023-12-14T06:45:32;30.07;;;21.13;;
13941;SDS011;7043;51.630;7.254;2023-12-14T06:47:58;26.30;;;19.33;;
13941;SDS011;7043;51.630;7.254;2023-12-14T06:50:24;32.13;;;23.97;;
13941;SDS011;7043;51.630;7.254;2023-12-14T06:52:50;28.93;;;21.93;;
13941;SDS011;7043;51.630;7.254;2023-12-14T06:55:15;28.37;;;21.57;;
13941;SDS011;7043;51.630;7.254;2023-12-14T06:57:45;32.03;;;25.40;;
13941;SDS011;7043;51.630;7.254;2023-12-14T07:00:12;29.60;;;21.77;;
13941;SDS011;7043;51.630;7.254;2023-12-14T07:02:38;26.43;;;20.83;;
13941;SDS011;7043;51.630;7.254;2023-12-14T07:05:04;30.33;;;22.40;;
13941;SDS011;7043;51.630;7.254;2023-12-14T07:07:30;38.03;;;29.27;;
13941;SDS011;7043;51.630;7.254;2023-12-14T07:09:56;25.27;;;18.90;;
13941;SDS011;7043;51.630;7.254;2023-12-14T07:12:22;25.10;;;18.50;;
13941;SDS011;7043;51.630;7.254;2023-12-14T07:14:48;26.23;;;21.53;;
13941;SDS011;7043;51.630;7.254;2023-12-14T07:17:14;26.83;;;20.37;;
13941;SDS011;7043;51.630;7.254;2023-12-14T07:19:40;24.50;;;20.73;;
13941;SDS011;7043;51.630;7.254;2023-12-14T07:22:06;24.87;;;21.07;;
13941;SDS011;7043;51.630;7.254;2023-12-14T07:24:32;26.80;;;22.27;;
13941;SDS011;7043;51.630;7.254;2023-12-14T07:26:58;25.47;;;19.33;;
13941;SDS011;7043;51.630;7.254;2023-12-14T07:29:24;27.07;;;21.23;;
13941;SDS011;7043;51.630;7.254;2023-12-14T07:31:50;20.97;;;16.37;;
13941;SDS011;7043;51.630;7.254;2023-12-14T07:34:16;23.33;;;20.30;;
13941;SDS011;7043;51.630;7.254;2023-12-14T07:36:42;34.30;;;30.60;;
13941;SDS011;7043;51.630;7.254;2023-12-14T07:39:08;25.47;;;20.87;;
13941;SDS011;7043;51.630;7.254;2023-12-14T07:41:34;23.23;;;17.73;;
13941;SDS011;7043;51.630;7.254;2023-12-14T07:44:00;21.57;;;16.30;;
13941;SDS011;7043;51.630;7.254;2023-12-14T07:46:26;20.50;;;16.83;;
13941;SDS011;7043;51.630;7.254;2023-12-14T07:48:52;19.33;;;15.57;;
13941;SDS011;7043;51.630;7.254;2023-12-14T07:51:18;23.40;;;17.90;;
13941;SDS011;7043;51.630;7.254;2023-12-14T07:53:44;20.53;;;16.53;;
13941;SDS011;7043;51.630;7.254;2023-12-14T07:56:11;22.77;;;19.30;;
13941;SDS011;7043;51.630;7.254;2023-12-14T07:58:37;21.47;;;17.67;;
13941;SDS011;7043;51.630;7.254;2023-12-14T08:01:03;25.23;;;17.33;;
13941;SDS011;7043;51.630;7.254;2023-12-14T08:03:29;22.87;;;17.73;;
13941;SDS011;7043;51.630;7.254;2023-12-14T08:05:58;22.00;;;16.53;;
13941;SDS011;7043;51.630;7.254;2023-12-14T08:08:24;23.10;;;18.60;;
13941;SDS011;7043;51.630;7.254;2023-12-14T08:10:51;22.93;;;18.27;;
13941;SDS011;7043;51.630;7.254;2023-12-14T08:13:17;25.40;;;18.40;;
13941;SDS011;7043;51.630;7.254;2023-12-14T08:15:43;24.67;;;18.03;;
13941;SDS011;7043;51.630;7.254;2023-12-14T08:18:09;25.27;;;19.50;;
13941;SDS011;7043;51.630;7.254;2023-12-14T08:20:35;27.53;;;20.70;;
13941;SDS011;7043;51.630;7.254;2023-12-14T08:23:04;26.03;;;19.83;;
13941;SDS011;7043;51.630;7.254;2023-12-14T08:25:30;26.47;;;19.50;;
13941;SDS011;7043;51.630;7.254;2023-12-14T08:27:56;27.37;;;20.87;;
13941;SDS011;7043;51.630;7.254;2023-12-14T08:30:22;28.20;;;20.33;;
13941;SDS011;7043;51.630;7.254;2023-12-14T08:32:49;27.30;;;21.40;;
13941;SDS011;7043;51.630;7.254;2023-12-14T08:35:15;26.30;;;20.00;;
13941;SDS011;7043;51.630;7.254;2023-12-14T08:37:41;26.57;;;20.13;;
13941;SDS011;7043;51.630;7.254;2023-12-14T08:40:08;28.20;;;21.93;;
13941;SDS011;7043;51.630;7.254;2023-12-14T08:42:35;28.77;;;22.53;;
13941;SDS011;7043;51.630;7.254;2023-12-14T08:45:01;30.20;;;22.93;;
13941;SDS011;7043;51.630;7.254;2023-12-14T08:47:27;28.30;;;23.10;;
13941;SDS011;7043;51.630;7.254;2023-12-14T08:49:53;27.80;;;22.93;;
13941;SDS011;7043;51.630;7.254;2023-12-14T08:52:19;27.20;;;20.43;;
13941;SDS011;7043;51.630;7.254;2023-12-14T08:54:45;32.27;;;22.90;;
13941;SDS011;7043;51.630;7.254;2023-12-14T08:57:11;32.07;;;22.70;;
13941;SDS011;7043;51.630;7.254;2023-12-14T08:59:37;30.67;;;22.13;;
13941;SDS011;7043;51.630;7.254;2023-12-14T09:02:03;37.23;;;26.20;;
13941;SDS011;7043;51.630;7.254;2023-12-14T09:04:29;33.83;;;23.90;;
13941;SDS011;7043;51.630;7.254;2023-12-14T09:06:56;38.50;;;26.53;;
13941;SDS011;7043;51.630;7.254;2023-12-14T09:09:22;39.33;;;25.73;;
13941;SDS011;7043;51.630;7.254;2023-12-14T09:11:48;36.03;;;25.80;;
13941;SDS011;7043;51.630;7.254;2023-12-14T09:14:14;38.67;;;27.17;;
13941;SDS011;7043;51.630;7.254;2023-12-14T09:16:41;40.47;;;26.33;;
13941;SDS011;7043;51.630;7.254;2023-12-14T09:19:07;43.70;;;28.40;;
13941;SDS011;7043;51.630;7.254;2023-12-14T09:21:33;44.23;;;28.47;;
13941;SDS011;7043;51.630;7.254;2023-12-14T09:23:59;44.70;;;29.07;;
13941;SDS011;7043;51.630;7.254;2023-12-14T09:26:26;41.10;;;26.73;;
13941;SDS011;7043;51.630;7.254;2023-12-14T09:28:52;40.03;;;27.20;;
13941;SDS011;7043;51.630;7.254;2023-12-14T09:31:18;42.07;;;27.27;;
13941;SDS011;7043;51.630;7.254;2023-12-14T09:33:44;40.50;;;27.17;;
13941;SDS011;7043;51.630;7.254;2023-12-14T09:36:10;34.83;;;24.87;;
13941;SDS011;7043;51.630;7.254;2023-12-14T09:38:36;38.43;;;27.00;;
13941;SDS011;7043;51.630;7.254;2023-12-14T09:41:02;36.23;;;24.20;;
13941;SDS011;7043;51.630;7.254;2023-12-14T09:43:29;37.13;;;24.63;;
13941;SDS011;7043;51.630;7.254;2023-12-14T09:45:55;33.87;;;24.10;;
13941;SDS011;7043;51.630;7.254;2023-12-14T09:48:21;33.77;;;24.27;;
13941;SDS011;7043;51.630;7.254;2023-12-14T09:50:47;32.63;;;21.90;;
13941;SDS011;7043;51.630;7.254;2023-12-14T09:53:15;36.30;;;23.50;;
13941;SDS011;7043;51.630;7.254;2023-12-14T09:55:41;32.90;;;22.37;;
13941;SDS011;7043;51.630;7.254;2023-12-14T09:58:07;35.03;;;22.63;;
13941;SDS011;7043;51.630;7.254;2023-12-14T10:00:35;34.20;;;22.37;;
13941;SDS011;7043;51.630;7.254;2023-12-14T10:03:23;36.27;;;23.37;;
13941;SDS011;7043;51.630;7.254;2023-12-14T10:05:49;31.03;;;20.93;;
13941;SDS011;7043;51.630;7.254;2023-12-14T10:08:15;31.43;;;20.17;;
13941;SDS011;7043;51.630;7.254;2023-12-14T10:10:45;31.77;;;20.40;;
13941;SDS011;7043;51.630;7.254;2023-12-14T10:13:11;32.73;;;20.93;;
13941;SDS011;7043;51.630;7.254;2023-12-14T10:15:41;36.10;;;20.67;;
13941;SDS011;7043;51.630;7.254;2023-12-14T10:18:07;32.53;;;20.70;;
13941;SDS011;7043;51.630;7.254;2023-12-14T10:20:33;33.90;;;21.37;;
13941;SDS011;7043;51.630;7.254;2023-12-14T10:22:59;36.53;;;22.63;;
13941;SDS011;7043;51.630;7.254;2023-12-14T10:25:25;33.97;;;21.87;;
13941;SDS011;7043;51.630;7.254;2023-12-14T10:27:51;35.83;;;22.80;;
13941;SDS011;7043;51.630;7.254;2023-12-14T10:30:20;35.83;;;22.77;;
13941;SDS011;7043;51.630;7.254;2023-12-14T10:32:49;37.70;;;22.87;;
13941;SDS011;7043;51.630;7.254;2023-12-14T10:35:16;36.03;;;22.67;;
13941;SDS011;7043;51.630;7.254;2023-12-14T10:37:44;35.83;;;22.03;;
13941;SDS011;7043;51.630;7.254;2023-12-14T10:40:11;35.93;;;22.27;;
13941;SDS011;7043;51.630;7.254;2023-12-14T10:42:37;33.47;;;21.53;;
13941;SDS011;7043;51.630;7.254;2023-12-14T10:45:04;36.97;;;21.67;;
13941;SDS011;7043;51.630;7.254;2023-12-14T10:47:31;34.37;;;21.67;;
13941;SDS011;7043;51.630;7.254;2023-12-14T10:49:59;33.00;;;21.13;;
13941;SDS011;7043;51.630;7.254;2023-12-14T10:52:26;36.17;;;21.47;;
13941;SDS011;7043;51.630;7.254;2023-12-14T10:54:55;34.00;;;21.27;;
13941;SDS011;7043;51.630;7.254;2023-12-14T10:57:22;35.77;;;22.83;;
13941;SDS011;7043;51.630;7.254;2023-12-14T10:59:49;35.03;;;23.13;;
13941;SDS011;7043;51.630;7.254;2023-12-14T11:02:15;31.80;;;22.27;;
13941;SDS011;7043;51.630;7.254;2023-12-14T11:04:53;32.73;;;22.07;;
13941;SDS011;7043;51.630;7.254;2023-12-14T11:07:42;32.63;;;22.57;;
13941;SDS011;7043;51.630;7.254;2023-12-14T11:10:06;34.77;;;23.50;;
13941;SDS011;7043;51.630;7.254;2023-12-14T11:12:33;33.67;;;22.20;;
13941;SDS011;7043;51.630;7.254;2023-12-14T11:14:59;32.50;;;22.17;;
13941;SDS011;7043;51.630;7.254;2023-12-14T11:17:25;32.37;;;21.50;;
13941;SDS011;7043;51.630;7.254;2023-12-14T11:19:54;31.57;;;19.90;;
13941;SDS011;7043;51.630;7.254;2023-12-14T11:22:24;33.77;;;20.90;;
13941;SDS011;7043;51.630;7.254;2023-12-14T11:24:51;29.53;;;19.93;;
13941;SDS011;7043;51.630;7.254;2023-12-14T11:27:20;29.67;;;19.90;;
13941;SDS011;7043;51.630;7.254;2023-12-14T11:29:47;30.27;;;19.40;;
13941;SDS011;7043;51.630;7.254;2023-12-14T11:32:13;28.57;;;19.60;;
13941;SDS011;7043;51.630;7.254;2023-12-14T11:34:39;34.70;;;24.20;;
13941;SDS011;7043;51.630;7.254;2023-12-14T11:37:05;30.57;;;21.07;;
13941;SDS011;7043;51.630;7.254;2023-12-14T11:39:32;35.13;;;24.90;;
13941;SDS011;7043;51.630;7.254;2023-12-14T11:41:59;31.47;;;22.47;;
13941;SDS011;7043;51.630;7.254;2023-12-14T11:44:25;30.97;;;21.30;;
13941;SDS011;7043;51.630;7.254;2023-12-14T11:46:51;31.83;;;20.63;;
13941;SDS011;7043;51.630;7.254;2023-12-14T11:49:17;29.53;;;20.33;;
13941;SDS011;7043;51.630;7.254;2023-12-14T11:51:45;29.90;;;20.47;;
13941;SDS011;7043;51.630;7.254;2023-12-14T11:54:12;29.83;;;19.73;;
13941;SDS011;7043;51.630;7.254;2023-12-14T11:56:38;26.07;;;17.93;;
13941;SDS011;7043;51.630;7.254;2023-12-14T11:59:04;25.60;;;18.37;;
13941;SDS011;7043;51.630;7.254;2023-12-14T12:01:30;24.47;;;17.93;;
13941;SDS011;7043;51.630;7.254;2023-12-14T12:04:02;22.13;;;16.67;;
13941;SDS011;7043;51.630;7.254;2023-12-14T12:06:33;26.87;;;17.80;;
13941;SDS011;7043;51.630;7.254;2023-12-14T12:08:59;26.57;;;19.27;;
13941;SDS011;7043;51.630;7.254;2023-12-14T12:11:25;24.70;;;17.90;;
13941;SDS011;7043;51.630;7.254;2023-12-14T12:13:53;25.03;;;17.20;;
13941;SDS011;7043;51.630;7.254;2023-12-14T12:16:19;23.00;;;16.60;;
13941;SDS011;7043;51.630;7.254;2023-12-14T12:18:46;23.00;;;17.33;;
13941;SDS011;7043;51.630;7.254;2023-12-14T12:21:12;22.37;;;16.27;;
13941;SDS011;7043;51.630;7.254;2023-12-14T12:23:38;22.30;;;16.40;;
13941;SDS011;7043;51.630;7.254;2023-12-14T12:26:04;21.73;;;16.30;;
13941;SDS011;7043;51.630;7.254;2023-12-14T12:28:31;22.40;;;16.33;;
13941;SDS011;7043;51.630;7.254;2023-12-14T12:30:57;22.97;;;17.27;;
13941;SDS011;7043;51.630;7.254;2023-12-14T12:33:24;24.30;;;17.23;;
13941;SDS011;7043;51.630;7.254;2023-12-14T12:35:51;23.70;;;17.97;;
13941;SDS011;7043;51.630;7.254;2023-12-14T12:38:17;24.20;;;17.70;;
13941;SDS011;7043;51.630;7.254;2023-12-14T12:40:44;25.10;;;17.90;;
13941;SDS011;7043;51.630;7.254;2023-12-14T12:43:10;22.70;;;16.87;;
13941;SDS011;7043;51.630;7.254;2023-12-14T12:45:36;23.23;;;17.27;;
13941;SDS011;7043;51.630;7.254;2023-12-14T12:48:03;22.53;;;17.33;;
13941;SDS011;7043;51.630;7.254;2023-12-14T12:50:29;21.67;;;16.40;;
13941;SDS011;7043;51.630;7.254;2023-12-14T12:52:55;24.13;;;17.77;;
13941;SDS011;7043;51.630;7.254;2023-12-14T12:55:21;22.33;;;17.00;;
13941;SDS011;7043;51.630;7.254;2023-12-14T12:57:50;23.03;;;16.80;;
13941;SDS011;7043;51.630;7.254;2023-12-14T13:00:16;20.67;;;16.50;;
13941;SDS011;7043;51.630;7.254;2023-12-14T13:02:43;21.87;;;17.33;;
13941;SDS011;7043;51.630;7.254;2023-12-14T13:05:10;23.57;;;17.53;;
13941;SDS011;7043;51.630;7.254;2023-12-14T13:07:36;25.47;;;17.63;;
13941;SDS011;7043;51.630;7.254;2023-12-14T13:10:03;23.83;;;18.53;;
13941;SDS011;7043;51.630;7.254;2023-12-14T13:12:31;24.13;;;18.23;;
13941;SDS011;7043;51.630;7.254;2023-12-14T13:14:57;24.33;;;18.57;;
13941;SDS011;7043;51.630;7.254;2023-12-14T13:17:23;25.23;;;17.77;;
13941;SDS011;7043;51.630;7.254;2023-12-14T13:19:49;24.33;;;18.37;;
13941;SDS011;7043;51.630;7.254;2023-12-14T13:22:15;25.07;;;18.83;;
13941;SDS011;7043;51.630;7.254;2023-12-14T13:24:41;25.53;;;18.43;;
13941;SDS011;7043;51.630;7.254;2023-12-14T13:27:07;25.67;;;18.97;;
13941;SDS011;7043;51.630;7.254;2023-12-14T13:29:33;25.47;;;19.10;;
13941;SDS011;7043;51.630;7.254;2023-12-14T13:32:00;27.13;;;20.30;;
13941;SDS011;7043;51.630;7.254;2023-12-14T13:34:26;28.07;;;20.47;;
13941;SDS011;7043;51.630;7.254;2023-12-14T13:36:53;25.93;;;20.13;;
13941;SDS011;7043;51.630;7.254;2023-12-14T13:39:19;26.57;;;19.77;;
13941;SDS011;7043;51.630;7.254;2023-12-14T13:41:45;27.67;;;20.07;;
13941;SDS011;7043;51.630;7.254;2023-12-14T13:44:11;27.57;;;21.10;;
13941;SDS011;7043;51.630;7.254;2023-12-14T13:46:42;27.27;;;20.77;;
13941;SDS011;7043;51.630;7.254;2023-12-14T13:49:08;29.37;;;21.20;;
13941;SDS011;7043;51.630;7.254;2023-12-14T13:51:35;28.53;;;20.63;;
13941;SDS011;7043;51.630;7.254;2023-12-14T13:54:01;32.67;;;23.93;;
13941;SDS011;7043;51.630;7.254;2023-12-14T13:56:27;37.17;;;27.57;;
13941;SDS011;7043;51.630;7.254;2023-12-14T13:58:55;32.20;;;23.60;;
13941;SDS011;7043;51.630;7.254;2023-12-14T14:01:21;30.33;;;22.63;;
13941;SDS011;7043;51.630;7.254;2023-12-14T14:03:48;31.40;;;22.30;;
13941;SDS011;7043;51.630;7.254;2023-12-14T14:06:14;34.97;;;24.17;;
13941;SDS011;7043;51.630;7.254;2023-12-14T14:08:40;34.40;;;24.43;;
13941;SDS011;7043;51.630;7.254;2023-12-14T14:11:06;35.07;;;24.87;;
13941;SDS011;7043;51.630;7.254;2023-12-14T14:13:32;32.83;;;24.20;;
13941;SDS011;7043;51.630;7.254;2023-12-14T14:15:58;32.47;;;23.63;;
13941;SDS011;7043;51.630;7.254;2023-12-14T14:18:24;30.80;;;22.87;;
13941;SDS011;7043;51.630;7.254;2023-12-14T14:20:50;31.70;;;22.63;;
13941;SDS011;7043;51.630;7.254;2023-12-14T14:23:16;34.10;;;23.33;;
13941;SDS011;7043;51.630;7.254;2023-12-14T14:25:42;33.87;;;23.37;;
13941;SDS011;7043;51.630;7.254;2023-12-14T14:28:09;32.03;;;23.50;;